createdAt,value
2022-10-20T00:00:11.880Z,10.95
2022-10-20T00:02:38.547Z,10.92
2022-10-20T00:05:05.183Z,10.83
2022-10-20T00:07:31.479Z,10.84
2022-10-20T00:09:57.797Z,10.83
2022-10-20T00:12:25.463Z,10.77
2022-10-20T00:14:51.755Z,10.79
2022-10-20T00:17:18.024Z,10.79
2022-10-20T00:19:46.958Z,10.81
2022-10-20T00:22:13.263Z,10.75
2022-10-20T00:24:39.589Z,10.75
2022-10-20T00:27:05.876Z,10.74
2022-10-20T00:29:33.528Z,10.71
2022-10-20T00:31:59.825Z,10.69
2022-10-20T00:34:26.092Z,10.70
2022-10-20T00:36:52.383Z,10.70
2022-10-20T00:39:18.694Z,10.67
2022-10-20T00:41:44.984Z,10.70
2022-10-20T00:44:29.900Z,10.68
2022-10-20T00:46:57.778Z,10.62
2022-10-20T00:49:25.422Z,10.62
2022-10-20T00:51:52.636Z,10.64
2022-10-20T00:54:20.980Z,10.64
2022-10-20T00:56:48.103Z,10.67
2022-10-20T00:59:16.324Z,10.64
2022-10-20T01:01:43.345Z,10.64
2022-10-20T01:04:11.572Z,10.63
2022-10-20T01:06:38.104Z,10.63
2022-10-20T01:09:05.166Z,10.63
2022-10-20T01:11:35.533Z,10.64
2022-10-20T01:14:13.680Z,10.68
2022-10-20T01:16:46.487Z,10.63
2022-10-20T01:19:25.783Z,10.63
2022-10-20T01:22:01.801Z,10.67
2022-10-20T01:24:39.047Z,10.67
2022-10-20T01:27:24.483Z,10.71
2022-10-20T01:29:53.539Z,10.75
2022-10-20T01:32:22.554Z,10.73
2022-10-20T01:34:53.197Z,10.77
2022-10-20T01:37:47.617Z,10.78
2022-10-20T01:40:16.299Z,10.74
2022-10-20T01:42:45.816Z,10.76
2022-10-20T01:45:13.240Z,10.79
2022-10-20T01:47:40.348Z,10.79
2022-10-20T01:50:07.562Z,10.76
2022-10-20T01:52:34.158Z,10.76
2022-10-20T01:55:00.703Z,10.75
2022-10-20T01:57:34.238Z,10.75
2022-10-20T02:00:04.926Z,10.71
2022-10-20T02:02:38.399Z,10.70
2022-10-20T02:05:18.516Z,10.72
2022-10-20T02:07:44.819Z,10.70
2022-10-20T02:10:13.324Z,10.71
2022-10-20T02:12:41.805Z,10.72
2022-10-20T02:15:12.046Z,10.75
2022-10-20T02:17:40.467Z,10.77
2022-10-20T02:20:07.385Z,10.78
2022-10-20T02:22:34.025Z,10.78
2022-10-20T02:25:00.971Z,10.81
2022-10-20T02:27:29.500Z,10.83
2022-10-20T02:29:57.317Z,10.84
2022-10-20T02:32:25.268Z,10.85
2022-10-20T02:34:51.550Z,10.84
2022-10-20T02:37:17.913Z,10.87
2022-10-20T02:39:44.257Z,10.88
2022-10-20T02:42:10.567Z,10.87
2022-10-20T02:44:36.874Z,10.88
2022-10-20T02:47:03.165Z,10.94
2022-10-20T02:49:30.811Z,10.94
2022-10-20T02:51:57.111Z,10.92
2022-10-20T02:54:23.428Z,10.99
2022-10-20T02:56:49.706Z,11.02
2022-10-20T02:59:16.720Z,11.01
2022-10-20T03:01:43.317Z,11.00
2022-10-20T03:04:09.612Z,11.01
2022-10-20T03:06:37.274Z,11.04
2022-10-20T03:09:03.737Z,11.05
2022-10-20T03:11:30.068Z,11.06
2022-10-20T03:13:56.380Z,11.04
2022-10-20T03:16:22.668Z,11.04
2022-10-20T03:18:48.980Z,11.08
2022-10-20T03:21:15.256Z,11.07
2022-10-20T03:23:42.916Z,11.10
2022-10-20T03:26:10.478Z,11.12
2022-10-20T03:28:36.766Z,11.10
2022-10-20T03:31:03.555Z,11.11
2022-10-20T03:33:30.050Z,11.12
2022-10-20T03:35:56.763Z,11.10
2022-10-20T03:38:23.184Z,11.11
2022-10-20T03:40:50.860Z,11.11
2022-10-20T03:43:17.163Z,11.13
2022-10-20T03:45:43.914Z,11.16
2022-10-20T03:48:10.720Z,11.15
2022-10-20T03:50:38.059Z,11.16
2022-10-20T03:53:04.509Z,11.14
2022-10-20T03:55:30.844Z,11.19
2022-10-20T03:57:58.509Z,11.22
2022-10-20T04:00:24.859Z,11.22
2022-10-20T04:02:51.220Z,11.26
2022-10-20T04:05:19.006Z,11.25
2022-10-20T04:07:45.507Z,11.27
2022-10-20T04:10:13.003Z,11.27
2022-10-20T04:12:39.501Z,11.25
2022-10-20T04:15:08.094Z,11.28
2022-10-20T04:17:34.397Z,11.34
2022-10-20T04:20:00.738Z,11.31
2022-10-20T04:22:27.017Z,11.26
2022-10-20T04:24:53.316Z,11.30
2022-10-20T04:27:19.615Z,11.33
2022-10-20T04:29:46.576Z,11.37
2022-10-20T04:32:14.330Z,11.37
2022-10-20T04:34:40.587Z,11.38
2022-10-20T04:37:06.907Z,11.40
2022-10-20T04:39:33.198Z,11.39
2022-10-20T04:41:59.498Z,11.39
2022-10-20T04:44:25.772Z,11.39
2022-10-20T04:46:53.603Z,11.44
2022-10-20T04:49:21.271Z,11.47
2022-10-20T04:51:47.598Z,11.47
2022-10-20T04:54:13.913Z,11.51
2022-10-20T04:56:40.224Z,11.49
2022-10-20T04:59:09.573Z,11.45
2022-10-20T05:01:38.990Z,11.50
2022-10-20T05:04:05.289Z,11.56
2022-10-20T05:06:33.343Z,11.54
2022-10-20T05:09:00.700Z,11.57
2022-10-20T05:11:28.794Z,11.53
2022-10-20T05:13:55.418Z,11.51
2022-10-20T05:16:22.085Z,11.50
2022-10-20T05:18:48.804Z,11.51
2022-10-20T05:21:18.537Z,11.51
2022-10-20T05:23:46.400Z,11.50
2022-10-20T05:26:14.266Z,11.51
2022-10-20T05:28:43.449Z,11.48
2022-10-20T05:31:09.727Z,11.46
2022-10-20T05:33:36.232Z,11.45
2022-10-20T05:36:06.626Z,11.43
2022-10-20T05:38:32.919Z,11.38
2022-10-20T05:41:06.156Z,11.37
2022-10-20T05:43:32.433Z,11.35
2022-10-20T05:45:58.738Z,11.35
2022-10-20T05:48:25.047Z,11.36
2022-10-20T05:50:51.378Z,11.34
2022-10-20T05:53:18.006Z,11.30
2022-10-20T05:55:44.290Z,11.34
2022-10-20T05:58:12.092Z,11.30
2022-10-20T06:00:38.393Z,11.32
2022-10-20T06:03:04.707Z,11.31
2022-10-20T06:05:30.994Z,11.37
2022-10-20T06:07:57.338Z,11.36
2022-10-20T06:10:23.656Z,11.36
2022-10-20T06:12:50.090Z,11.35
2022-10-20T06:15:17.817Z,11.33
2022-10-20T06:17:46.221Z,11.34
2022-10-20T06:20:12.505Z,11.38
2022-10-20T06:22:39.209Z,11.36
2022-10-20T06:25:06.552Z,11.37
2022-10-20T06:27:32.862Z,11.38
2022-10-20T06:29:59.171Z,11.38
2022-10-20T06:32:26.841Z,11.39
2022-10-20T06:34:53.126Z,11.41
2022-10-20T06:37:19.516Z,11.41
2022-10-20T06:39:45.832Z,11.41
2022-10-20T06:42:12.416Z,11.43
2022-10-20T06:44:38.824Z,11.45
2022-10-20T06:47:05.112Z,11.42
2022-10-20T06:49:32.737Z,11.47
2022-10-20T06:51:59.074Z,11.48
2022-10-20T06:54:25.408Z,11.49
2022-10-20T06:56:51.702Z,11.48
2022-10-20T06:59:18.040Z,11.51
2022-10-20T07:01:44.366Z,11.54
2022-10-20T07:04:13.531Z,11.57
2022-10-20T07:06:42.257Z,11.58
2022-10-20T07:09:11.920Z,11.63
2022-10-20T07:11:38.262Z,11.64
2022-10-20T07:14:04.778Z,11.67
2022-10-20T07:16:32.357Z,11.69
2022-10-20T07:18:58.752Z,11.70
2022-10-20T07:21:27.583Z,11.71
2022-10-20T07:23:57.158Z,11.74
2022-10-20T07:26:24.516Z,11.75
2022-10-20T07:28:55.583Z,11.76
2022-10-20T07:31:23.549Z,11.78
2022-10-20T07:34:13.418Z,11.86
2022-10-20T07:36:39.985Z,11.90
2022-10-20T07:39:07.743Z,11.88
2022-10-20T07:41:34.427Z,11.91
2022-10-20T07:44:00.730Z,11.96
2022-10-20T07:46:27.017Z,12.00
2022-10-20T07:48:53.300Z,11.99
2022-10-20T07:51:27.253Z,12.06
2022-10-20T07:53:58.188Z,12.09
2022-10-20T07:56:29.049Z,12.10
2022-10-20T07:58:55.394Z,12.12
2022-10-20T08:01:21.724Z,12.17
2022-10-20T08:03:48.042Z,12.19
2022-10-20T08:06:14.380Z,12.21
2022-10-20T08:08:40.714Z,12.28
2022-10-20T08:11:07.431Z,12.31
2022-10-20T08:13:35.094Z,12.37
2022-10-20T08:16:01.687Z,12.45
2022-10-20T08:18:34.072Z,12.53
2022-10-20T08:21:06.709Z,12.63
2022-10-20T08:23:33.041Z,12.79
2022-10-20T08:25:59.331Z,12.95
2022-10-20T08:28:26.339Z,13.09
2022-10-20T08:30:54.765Z,13.19
2022-10-20T08:33:21.131Z,13.27
2022-10-20T08:35:47.458Z,13.30
2022-10-20T08:38:13.760Z,13.31
2022-10-20T08:40:41.342Z,13.33
2022-10-20T08:43:11.518Z,13.31
2022-10-20T08:45:39.341Z,13.32
2022-10-20T08:48:10.030Z,13.31
2022-10-20T08:50:36.717Z,13.30
2022-10-20T08:53:03.079Z,13.30
2022-10-20T08:55:30.750Z,13.30
2022-10-20T08:58:00.261Z,13.30
2022-10-20T09:00:27.061Z,13.36
2022-10-20T09:02:53.922Z,13.37
2022-10-20T09:05:24.605Z,13.37
2022-10-20T09:07:51.989Z,13.40
2022-10-20T09:10:24.046Z,13.43
2022-10-20T09:12:51.006Z,13.45
2022-10-20T09:15:18.256Z,13.46
2022-10-20T09:17:46.603Z,13.46
2022-10-20T09:20:16.378Z,13.48
2022-10-20T09:22:44.232Z,13.51
2022-10-20T09:25:13.930Z,13.53
2022-10-20T09:27:41.204Z,13.57
2022-10-20T09:30:13.455Z,13.61
2022-10-20T09:32:47.774Z,13.65
2022-10-20T09:35:19.369Z,13.73
2022-10-20T09:37:50.680Z,13.82
2022-10-20T09:40:18.050Z,13.88
2022-10-20T09:42:46.600Z,13.93
2022-10-20T09:45:17.581Z,13.92
2022-10-20T09:47:45.840Z,13.92
2022-10-20T09:50:18.420Z,13.87
2022-10-20T09:52:45.426Z,13.80
2022-10-20T09:55:19.919Z,13.77
2022-10-20T09:57:47.099Z,13.77
2022-10-20T10:00:36.232Z,13.76
2022-10-20T10:03:07.999Z,13.78
2022-10-20T10:05:34.488Z,13.82
2022-10-20T10:08:00.794Z,13.84
2022-10-20T10:10:29.275Z,13.85
2022-10-20T10:12:57.559Z,13.88
2022-10-20T10:15:25.904Z,13.90
2022-10-20T10:17:52.587Z,13.92
2022-10-20T10:20:30.925Z,13.93
2022-10-20T10:23:18.851Z,13.89
2022-10-20T10:25:46.815Z,13.88
2022-10-20T10:28:20.620Z,13.84
2022-10-20T10:30:49.501Z,13.79
2022-10-20T10:33:24.815Z,13.74
2022-10-20T10:35:51.195Z,13.70
2022-10-20T10:38:17.530Z,13.68
2022-10-20T10:40:49.907Z,13.65
2022-10-20T10:43:24.132Z,13.64
2022-10-20T10:45:51.806Z,13.63
2022-10-20T10:48:36.914Z,13.61
2022-10-20T10:51:05.804Z,13.60
2022-10-20T10:53:42.287Z,13.58
2022-10-20T10:56:15.869Z,13.58
2022-10-20T10:58:45.279Z,13.55
2022-10-20T11:01:32.558Z,13.55
2022-10-20T11:04:08.574Z,13.52
2022-10-20T11:06:38.979Z,13.51
2022-10-20T11:09:10.640Z,13.53
2022-10-20T11:11:48.290Z,13.54
2022-10-20T11:16:51.155Z,13.53
2022-10-20T11:19:35.195Z,13.51
2022-10-20T11:22:09.418Z,13.50
2022-10-20T11:24:42.620Z,13.49
2022-10-20T11:27:12.102Z,13.46
2022-10-20T11:29:41.168Z,13.45
2022-10-20T11:32:11.763Z,13.45
2022-10-20T11:34:40.065Z,13.46
2022-10-20T11:37:13.311Z,13.46
2022-10-20T11:39:41.609Z,13.47
2022-10-20T11:42:16.797Z,13.49
2022-10-20T11:44:44.658Z,13.51
2022-10-20T11:47:13.349Z,13.55
2022-10-20T11:49:40.383Z,13.58
2022-10-20T11:52:24.365Z,13.61
2022-10-20T11:54:58.239Z,13.67
2022-10-20T11:57:30.178Z,13.71
2022-10-20T12:00:10.232Z,13.80
2022-10-20T12:02:55.218Z,13.84
2022-10-20T12:05:34.487Z,13.91
2022-10-20T12:08:30.490Z,13.96
2022-10-20T12:11:02.637Z,14.08
2022-10-20T12:13:35.928Z,14.17
2022-10-20T12:16:02.316Z,14.20
2022-10-20T12:18:29.846Z,14.23
2022-10-20T12:20:57.532Z,14.27
2022-10-20T12:23:42.580Z,14.43
2022-10-20T12:26:23.793Z,14.62
2022-10-20T12:28:51.416Z,14.72
2022-10-20T12:31:17.810Z,14.79
2022-10-20T12:33:59.977Z,14.79
2022-10-20T12:36:28.965Z,14.75
2022-10-20T12:39:08.171Z,14.73
2022-10-20T12:41:35.765Z,14.75
2022-10-20T12:44:05.311Z,14.77
2022-10-20T12:46:32.536Z,14.81
2022-10-20T12:49:00.612Z,14.87
2022-10-20T12:51:38.061Z,14.91
2022-10-20T12:54:07.411Z,15.01
2022-10-20T12:56:36.181Z,15.10
2022-10-20T12:59:23.532Z,15.23
2022-10-20T13:02:08.303Z,15.34
2022-10-20T13:04:55.124Z,15.32
2022-10-20T13:07:36.965Z,15.32
2022-10-20T13:10:18.397Z,15.35
2022-10-20T13:12:44.757Z,15.41
2022-10-20T13:15:13.294Z,15.42
2022-10-20T13:17:51.167Z,15.43
2022-10-20T13:20:29.589Z,15.43
2022-10-20T13:22:56.569Z,15.46
2022-10-20T13:25:32.401Z,15.43
2022-10-20T13:28:06.585Z,15.45
2022-10-20T13:30:33.925Z,15.48
2022-10-20T13:33:18.017Z,15.51
2022-10-20T13:35:54.474Z,15.55
2022-10-20T13:38:24.279Z,15.59
2022-10-20T13:40:53.673Z,15.64
2022-10-20T13:43:27.809Z,15.67
2022-10-20T13:46:01.632Z,15.71
2022-10-20T13:48:34.551Z,15.75
2022-10-20T13:51:03.885Z,15.79
2022-10-20T13:53:31.381Z,15.84
2022-10-20T13:55:59.643Z,15.89
2022-10-20T13:58:26.392Z,15.95
2022-10-20T14:00:56.298Z,16.02
2022-10-20T14:03:22.698Z,16.06
2022-10-20T14:05:50.027Z,16.07
2022-10-20T14:08:21.258Z,16.06
2022-10-20T14:10:51.065Z,16.02
2022-10-20T14:13:18.785Z,15.98
2022-10-20T14:15:46.682Z,15.97
2022-10-20T14:18:20.828Z,15.94
2022-10-20T14:20:53.494Z,15.92
2022-10-20T14:23:22.278Z,15.91
2022-10-20T14:25:49.709Z,15.90
2022-10-20T14:28:18.782Z,15.90
2022-10-20T14:30:45.980Z,15.90
2022-10-20T14:33:13.908Z,15.88
2022-10-20T14:35:41.567Z,15.94
2022-10-20T14:38:15.326Z,15.91
2022-10-20T14:40:48.749Z,15.94
2022-10-20T14:43:16.768Z,15.92
2022-10-20T14:45:50.949Z,15.94
2022-10-20T14:48:17.279Z,16.01
2022-10-20T14:50:43.671Z,16.14
2022-10-20T14:53:29.001Z,16.30
2022-10-20T14:55:57.603Z,16.36
2022-10-20T14:58:31.226Z,16.30
2022-10-20T15:01:18.887Z,16.29
2022-10-20T15:03:45.292Z,16.47
2022-10-20T15:06:15.242Z,16.56
2022-10-20T15:08:52.049Z,16.46
2022-10-20T15:11:21.929Z,16.49
2022-10-20T15:13:50.313Z,16.48
2022-10-20T15:16:31.285Z,16.35
2022-10-20T15:19:11.017Z,16.22
2022-10-20T15:21:37.293Z,16.11
2022-10-20T15:24:04.466Z,16.06
2022-10-20T15:26:32.117Z,15.98
2022-10-20T15:28:58.374Z,15.91
2022-10-20T15:31:25.860Z,15.85
2022-10-20T15:33:52.654Z,15.84
2022-10-20T15:36:20.314Z,15.82
2022-10-20T15:38:46.626Z,15.78
2022-10-20T15:41:13.517Z,15.73
2022-10-20T15:43:41.321Z,15.69
2022-10-20T15:46:09.174Z,15.67
2022-10-20T15:48:35.465Z,15.60
2022-10-20T15:51:01.910Z,15.58
2022-10-20T15:53:28.206Z,15.56
2022-10-20T15:55:54.497Z,15.54
2022-10-20T15:58:20.793Z,15.54
2022-10-20T16:00:48.449Z,15.52
2022-10-20T16:03:15.968Z,15.51
2022-10-20T16:05:42.260Z,15.50
2022-10-20T16:08:08.629Z,15.49
2022-10-20T16:10:34.923Z,15.47
2022-10-20T16:13:01.184Z,15.44
2022-10-20T16:15:30.230Z,15.43
2022-10-20T16:17:59.051Z,15.38
2022-10-20T16:20:25.342Z,15.36
2022-10-20T16:22:51.643Z,15.34
2022-10-20T16:25:18.091Z,15.31
2022-10-20T16:27:44.425Z,15.29
2022-10-20T16:30:10.774Z,15.30
2022-10-20T16:32:37.442Z,15.27
2022-10-20T16:35:05.860Z,15.25
2022-10-20T16:37:32.880Z,15.23
2022-10-20T16:39:59.577Z,15.19
2022-10-20T16:42:26.190Z,15.19
2022-10-20T16:44:52.492Z,15.15
2022-10-20T16:47:18.804Z,15.13
2022-10-20T16:49:45.089Z,15.09
2022-10-20T16:52:12.723Z,15.04
2022-10-20T16:54:39.065Z,15.04
2022-10-20T16:57:05.379Z,14.98
2022-10-20T16:59:31.699Z,14.96
2022-10-20T17:01:58.010Z,14.91
2022-10-20T17:04:24.304Z,14.90
2022-10-20T17:06:50.630Z,14.88
2022-10-20T17:09:18.347Z,14.81
2022-10-20T17:11:44.653Z,14.77
2022-10-20T17:14:11.297Z,14.72
2022-10-20T17:16:37.743Z,14.74
2022-10-20T17:19:04.157Z,14.72
2022-10-20T17:21:31.273Z,14.67
2022-10-20T17:23:57.587Z,14.66
2022-10-20T17:26:26.337Z,14.61
2022-10-20T17:28:53.885Z,14.61
2022-10-20T17:31:20.279Z,14.63
2022-10-20T17:33:46.944Z,14.62
2022-10-20T17:36:13.266Z,14.58
2022-10-20T17:38:39.921Z,14.57
2022-10-20T17:41:07.211Z,14.57
2022-10-20T17:43:37.444Z,14.56
2022-10-20T17:46:05.262Z,14.57
2022-10-20T17:48:31.740Z,14.53
2022-10-20T17:50:58.593Z,14.52
2022-10-20T17:53:24.893Z,14.52
2022-10-20T17:55:51.179Z,14.49
2022-10-20T17:58:19.586Z,14.52
2022-10-20T18:00:56.889Z,14.50
2022-10-20T18:03:23.408Z,14.49
2022-10-20T18:05:49.695Z,14.50
2022-10-20T18:08:15.998Z,14.52
2022-10-20T18:10:43.826Z,14.51
2022-10-20T18:13:10.495Z,14.49
2022-10-20T18:15:43.490Z,14.50
2022-10-20T18:18:11.148Z,14.48
2022-10-20T18:20:37.468Z,14.49
2022-10-20T18:23:03.777Z,14.50
2022-10-20T18:25:30.081Z,14.47
2022-10-20T18:27:56.373Z,14.47
2022-10-20T18:30:22.728Z,14.47
2022-10-20T18:32:49.024Z,14.47
2022-10-20T18:35:16.836Z,14.48
2022-10-20T18:37:43.140Z,14.45
2022-10-20T18:40:09.889Z,14.45
2022-10-20T18:42:36.292Z,14.44
2022-10-20T18:45:02.691Z,14.42
2022-10-20T18:47:29.024Z,14.43
2022-10-20T18:49:55.315Z,14.44
2022-10-20T18:52:22.929Z,14.44
2022-10-20T18:54:49.187Z,14.44
2022-10-20T18:57:15.478Z,14.44
2022-10-20T18:59:41.777Z,14.43
2022-10-20T19:02:09.696Z,14.43
2022-10-20T19:04:35.968Z,14.43
2022-10-20T19:07:02.284Z,14.45
2022-10-20T19:09:29.957Z,14.45
2022-10-20T19:11:56.270Z,14.43
2022-10-20T19:14:22.581Z,14.43
2022-10-20T19:16:49.230Z,14.42
2022-10-20T19:19:15.546Z,14.40
2022-10-20T19:21:41.845Z,14.39
2022-10-20T19:24:09.251Z,14.40
2022-10-20T19:26:38.504Z,14.41
2022-10-20T19:29:06.988Z,14.39
2022-10-20T19:31:34.559Z,14.38
2022-10-20T19:34:02.018Z,14.38
2022-10-20T19:36:28.671Z,14.37
2022-10-20T19:38:54.976Z,14.38
2022-10-20T19:41:21.962Z,14.33
2022-10-20T19:43:49.822Z,14.32
2022-10-20T19:46:17.097Z,14.28
2022-10-20T19:48:44.163Z,14.26
2022-10-20T19:51:10.559Z,14.22
2022-10-20T19:53:36.966Z,14.22
2022-10-20T19:56:03.485Z,14.20
2022-10-20T19:58:29.786Z,14.18
2022-10-20T20:00:58.441Z,14.12
2022-10-20T20:03:25.232Z,14.11
2022-10-20T20:05:56.564Z,14.14
2022-10-20T20:08:22.927Z,14.04
2022-10-20T20:10:51.250Z,14.10
2022-10-20T20:13:17.576Z,14.06
2022-10-20T20:15:43.877Z,14.00
2022-10-20T20:18:11.521Z,13.98
2022-10-20T20:20:38.740Z,13.96
2022-10-20T20:23:05.184Z,13.93
2022-10-20T20:25:35.363Z,13.92
2022-10-20T20:28:01.717Z,13.92
2022-10-20T20:30:28.016Z,13.95
2022-10-20T20:32:54.478Z,13.94
2022-10-20T20:35:22.135Z,13.92
2022-10-20T20:37:48.444Z,13.95
2022-10-20T20:40:14.853Z,13.96
2022-10-20T20:42:41.152Z,13.98
2022-10-20T20:45:07.960Z,14.00
2022-10-20T20:47:34.417Z,13.96
2022-10-20T20:50:00.855Z,13.91
2022-10-20T20:52:28.518Z,13.88
2022-10-20T20:54:54.974Z,13.90
2022-10-20T20:57:21.290Z,13.91
2022-10-20T20:59:47.628Z,13.90
2022-10-20T21:02:14.002Z,13.84
2022-10-20T21:04:40.373Z,13.87
2022-10-20T21:07:06.691Z,13.89
2022-10-20T21:09:34.982Z,13.92
2022-10-20T21:12:01.747Z,13.92
2022-10-20T21:14:28.052Z,13.92
2022-10-20T21:16:54.360Z,13.93
2022-10-20T21:19:20.666Z,13.94
2022-10-20T21:21:47.964Z,13.94
2022-10-20T21:24:14.259Z,13.98
2022-10-20T21:26:41.915Z,13.95
2022-10-20T21:29:08.206Z,13.94
2022-10-20T21:31:34.538Z,13.95
2022-10-20T21:34:01.925Z,13.93
2022-10-20T21:36:29.140Z,13.93
2022-10-20T21:38:55.448Z,13.94
2022-10-20T21:41:22.705Z,13.95
2022-10-20T21:43:51.141Z,13.94
2022-10-20T21:46:18.460Z,13.96
2022-10-20T21:48:45.427Z,13.98
2022-10-20T21:51:12.961Z,13.97
2022-10-20T21:53:39.485Z,13.99
2022-10-20T21:56:06.177Z,14.00
2022-10-20T21:58:32.513Z,14.02
2022-10-20T22:01:00.300Z,14.00
2022-10-20T22:03:26.687Z,14.02
2022-10-20T22:05:53.036Z,14.04
2022-10-20T22:08:19.301Z,14.04
2022-10-20T22:10:45.588Z,14.03
2022-10-20T22:13:11.906Z,14.03
2022-10-20T22:15:39.062Z,14.01
2022-10-20T22:18:06.672Z,13.99
2022-10-20T22:20:34.841Z,13.97
2022-10-20T22:23:02.819Z,13.94
2022-10-20T22:25:29.445Z,13.97
2022-10-20T22:27:55.747Z,13.93
2022-10-20T22:30:22.025Z,13.95
2022-10-20T22:32:48.303Z,13.94
2022-10-20T22:35:15.957Z,13.93
2022-10-20T22:37:42.253Z,13.91
2022-10-20T22:40:09.001Z,13.93
2022-10-20T22:42:35.279Z,13.94
2022-10-20T22:45:01.563Z,13.97
2022-10-20T22:47:27.861Z,13.97
2022-10-20T22:49:54.167Z,13.96
2022-10-20T22:52:21.816Z,13.97
2022-10-20T22:54:48.118Z,13.96
2022-10-20T22:57:14.499Z,13.96
2022-10-20T22:59:40.798Z,13.92
2022-10-20T23:02:07.124Z,13.96
2022-10-20T23:04:33.435Z,13.96
2022-10-20T23:09:32.708Z,13.99
2022-10-20T23:11:59.025Z,14.02
2022-10-20T23:14:25.330Z,14.03
2022-10-20T23:16:51.624Z,14.04
2022-10-20T23:19:17.998Z,14.04
2022-10-20T23:21:44.306Z,14.06
2022-10-20T23:24:10.594Z,14.06
2022-10-20T23:26:38.241Z,14.08
2022-10-20T23:29:04.509Z,14.09
2022-10-20T23:31:30.808Z,14.11
2022-10-20T23:33:57.268Z,14.10
2022-10-20T23:36:23.714Z,14.07
2022-10-20T23:38:50.008Z,14.11
2022-10-20T23:41:16.315Z,14.14
2022-10-20T23:43:43.997Z,14.13
2022-10-20T23:46:10.324Z,14.13
2022-10-20T23:48:36.597Z,14.13
2022-10-20T23:51:02.926Z,14.12
2022-10-20T23:53:29.600Z,14.11
2022-10-20T23:55:55.876Z,14.08
2022-10-20T23:58:22.186Z,14.07
